Aeroporto :
LOGIN :

Iscrizione | Disclaimer

   EN    FR    IT 

 










Sommario :    VFR   VFR Marginale   IFR   IFR Intensivo   IFR Molto Intensivo
Visibilità : 
Base nubi : 
>= 8 km
>= 3000ft
5 / 8 km
1000 / 3000 ft
1500m / 5 km
500 / 1000 ft
800 / 1500m
200 / 500 ft
< 800m
< 200 ft
Simboli :   Temporali  Nebbia  Neve Forte  Precipitazioni Forti  Vento > 20 kt
SIGMETs :   Varie  Temporali  Ghiacco  Turbolenza  Onda orograficha  Ceneri Vulcaniche






- Altitudine del aeroporto : 242 ft
- Codice IATA : DUB


EIDW - Dublin

ULTIMO METAR :
  • 261500Z 28019KT 9999 FEW022 SCT030 10/05 Q0997 NOSIG

METARs OBSOLETI :
  • 261430Z 28022KT 9999 FEW022 SCT030 10/05 Q0997 NOSIG
  • 261400Z 28018KT 9999 FEW022 SCT030 11/06 Q0997 NOSIG
  • 261330Z 28019G29KT 9999 -SHRA SCT022 BKN035 11/07 Q0997 NOSIG
  • 261300Z 28022KT 9999 SCT022 SCT030 12/06 Q0996 NOSIG
  • 261230Z 28019KT 9999 SCT022 SCT030 11/06 Q0996 NOSIG

TAF TAF EIDW
Valido dal 26 a 12 ore il 27 a 12 ore UTC


261100Z 2612/2712 28015KT 9999 SCT020
TEMPO 2612/2616 28017G28KT
BECMG 2620/2622 24007KT
BECMG 2700/2702 20008KT
BECMG 2702/2704 16008KT
BECMG 2704/2706 13012KT
BECMG 2706/2708 18012KT
TEMPO 2706/2710 5000 -RA BKN012
BECMG 2708/2710 26013KT



MetMap, La meteo Aeronautica in un colpo d'occhio ! - Copyright ORBIFLY Dicembre 2007 - Disclaimer

ORBIFLY MET'MAP TEAM :

Programmazione e sviluppo : Alexandra Zaïnal
Concezione : Baudouin d'Aumeries
Aiuto per la programmazione : Marc-Olivier Méhu
Supporto tecnico e logistico : Manuel Goepfert
Aiuto per la traduzione : Arnaldo La Scala

Contatto : metmap@orbifly.com




FONTI E CREDITI :

   NOAA